Portada
METAR-TAF:

METAR-TAF

Aeroports :

Loei, Tailàndia

latitud: 17-27N, longitud: 101-44E, altitud: 253 m

Observació

L'informe es va fer fa 6 hores i 14 minuts, a les 12:00 UTC
Vent 1 kt amb direcció variable
Temperatura 26°C
Humitat 94%
Pressió 1009 hPa
Visibilitat: 6000 m
Escasses núvols a una alçada de 3000 ft

METAR: VTUL 211200Z VRB01KT 6000 FEW030 26/25 Q1009 NOSIG

Hora: 01:14 (18:14 UTC)

Pronòstic

L'informe es va fer fa 1 hora i 14 minuts, a les 17:00 UTC
Pronòstic vàlid del 21 a les 18 UTC al 22 a les 18 UTC
Vent 6 kt del Est
Visibilitat: 6000 m
Escasses núvols a una alçada de 3000 ft
Evolucionant progressivament
l' 21 a les 21 UTC al 21 a les 23 UTC
Visibilitat: 4000 m
boirina
Evolucionant progressivament
l' 22 a les 00 UTC al 22 a les 02 UTC
Visibilitat: 8000 m

TAF: VTUL 211700Z 2118/2218 08006KT 6000 FEW030 BECMG 2121/2123 4000 BR BECMG 2200/2202 8000 NSW

Observacions i pronòstics meteorològics de més de 4000 aeroports (METAR i TAF).

Les estacions disponibles són els punts grocs i vermells al mapa.

Posi el ratolí al punt desitjat per veure el nom de l'estació.

Feu clic per veure les observacions i els pronòstics meteorològics.

Per canviar el mapa: feu clic els botons verds amb una creu de color negre per apropar; al botó verd amb un guió per allunyar la imatge; o en les fletxes verdes per a mapes adjacents.


METAR-TAF: